createdAt,value
2018-02-07T00:02:00.287Z,0.60
2018-02-07T00:04:27.744Z,0.70
2018-02-07T00:06:55.184Z,0.80
2018-02-07T00:09:22.638Z,0.90
2018-02-07T00:11:50.135Z,1.00
2018-02-07T00:14:17.589Z,1.00
2018-02-07T00:16:45.029Z,1.10
2018-02-07T00:19:12.477Z,1.10
2018-02-07T00:21:39.920Z,1.10
2018-02-07T00:24:07.375Z,0.80
2018-02-07T00:26:34.814Z,0.50
2018-02-07T00:29:02.289Z,0.60
2018-02-07T00:31:29.736Z,0.40
2018-02-07T00:33:57.274Z,0.40
2018-02-07T00:36:24.730Z,0.40
2018-02-07T00:38:52.198Z,0.20
2018-02-07T00:41:19.644Z,0.10
2018-02-07T00:43:47.103Z,0.20
2018-02-07T00:46:14.543Z,0.30
2018-02-07T00:48:42.003Z,0.20
2018-02-07T00:51:10.232Z,0.00
2018-02-07T00:53:37.660Z,0.00
2018-02-07T00:56:05.112Z,0.10
2018-02-07T00:58:32.566Z,0.10
2018-02-07T01:01:00.036Z,0.00
2018-02-07T01:03:27.455Z,0.20
2018-02-07T01:05:54.895Z,0.30
2018-02-07T01:08:22.334Z,0.40
2018-02-07T01:10:49.775Z,0.50
2018-02-07T01:13:17.241Z,0.60
2018-02-07T01:15:44.685Z,0.60
2018-02-07T01:18:12.155Z,0.50
2018-02-07T01:20:39.579Z,0.30
2018-02-07T01:23:07.041Z,0.20
2018-02-07T01:25:34.489Z,0.20
2018-02-07T01:28:01.915Z,0.10
2018-02-07T01:30:29.373Z,0.30
2018-02-07T01:32:56.823Z,0.40
2018-02-07T01:35:24.271Z,0.40
2018-02-07T01:37:51.775Z,0.50
2018-02-07T01:40:19.211Z,0.50
2018-02-07T01:42:46.648Z,0.60
2018-02-07T01:45:14.084Z,0.60
2018-02-07T01:47:41.539Z,0.70
2018-02-07T01:50:08.987Z,0.70
2018-02-07T01:52:36.424Z,0.70
2018-02-07T01:55:03.881Z,0.70
2018-02-07T01:57:31.331Z,0.80
2018-02-07T01:59:58.879Z,0.70
2018-02-07T02:02:26.328Z,0.70
2018-02-07T02:04:53.801Z,0.70
2018-02-07T02:07:21.247Z,0.80
2018-02-07T02:09:49.476Z,0.90
2018-02-07T02:12:16.899Z,0.70
2018-02-07T02:14:44.349Z,0.80
2018-02-07T02:17:11.787Z,0.80
2018-02-07T02:19:39.260Z,0.80
2018-02-07T02:22:06.924Z,0.80
2018-02-07T02:24:34.356Z,0.80
2018-02-07T02:27:01.797Z,0.80
2018-02-07T02:29:29.228Z,0.30
2018-02-07T02:31:56.695Z,0.30
2018-02-07T02:34:24.131Z,0.30
2018-02-07T02:36:51.575Z,0.30
2018-02-07T02:39:19.007Z,0.20
2018-02-07T02:41:47.228Z,0.40
2018-02-07T02:44:15.551Z,0.50
2018-02-07T02:46:43.000Z,0.50
2018-02-07T02:49:10.444Z,0.70
2018-02-07T02:51:37.888Z,0.70
2018-02-07T02:54:05.337Z,0.50
2018-02-07T02:56:32.794Z,0.60
2018-02-07T02:59:00.261Z,0.50
2018-02-07T03:01:27.712Z,0.80
2018-02-07T03:03:55.168Z,1.00
2018-02-07T03:06:22.695Z,1.20
2018-02-07T03:08:50.148Z,1.30
2018-02-07T03:11:17.612Z,1.40
2018-02-07T03:13:45.044Z,1.40
2018-02-07T03:16:12.490Z,1.50
2018-02-07T03:18:39.930Z,1.60
2018-02-07T03:21:07.366Z,1.60
2018-02-07T03:23:34.799Z,1.60
2018-02-07T03:26:02.249Z,1.60
2018-02-07T03:28:29.683Z,1.60
2018-02-07T03:30:57.914Z,1.60
2018-02-07T03:33:25.357Z,1.50
2018-02-07T03:35:52.826Z,1.60
2018-02-07T03:38:20.283Z,1.60
2018-02-07T03:40:47.729Z,1.60
2018-02-07T03:43:15.180Z,1.60
2018-02-07T03:45:42.624Z,1.60
2018-02-07T03:48:10.067Z,1.50
2018-02-07T03:50:37.526Z,1.50
2018-02-07T03:53:04.972Z,1.60
2018-02-07T03:55:33.186Z,1.80
2018-02-07T03:58:00.627Z,1.80
2018-02-07T04:00:28.071Z,1.80
2018-02-07T04:02:55.523Z,1.70
2018-02-07T04:05:23.727Z,1.00
2018-02-07T04:07:51.185Z,1.00
2018-02-07T04:10:18.658Z,0.90
2018-02-07T04:12:46.190Z,0.50
2018-02-07T04:15:13.652Z,0.70
2018-02-07T04:17:41.109Z,0.70
2018-02-07T04:20:08.585Z,0.50
2018-02-07T04:22:36.044Z,0.80
2018-02-07T04:25:03.505Z,0.50
2018-02-07T04:27:30.947Z,0.20
2018-02-07T04:29:58.386Z,0.20
2018-02-07T04:32:25.831Z,0.50
2018-02-07T04:34:53.282Z,0.70
2018-02-07T04:37:20.739Z,1.00
2018-02-07T04:39:48.155Z,1.10
2018-02-07T04:42:15.603Z,1.30
2018-02-07T04:44:43.059Z,1.30
2018-02-07T04:47:10.519Z,1.40
2018-02-07T04:49:37.979Z,1.10
2018-02-07T04:52:05.435Z,0.90
2018-02-07T04:54:32.896Z,0.90
2018-02-07T04:57:00.341Z,0.80
2018-02-07T04:59:27.793Z,0.60
2018-02-07T05:01:55.246Z,0.50
2018-02-07T05:04:22.710Z,0.50
2018-02-07T05:06:50.163Z,0.70
2018-02-07T05:09:17.630Z,0.60
2018-02-07T05:11:45.063Z,0.90
2018-02-07T05:14:12.519Z,1.10
2018-02-07T05:16:39.977Z,1.30
2018-02-07T05:19:07.533Z,1.40
2018-02-07T05:21:34.974Z,1.50
2018-02-07T05:24:02.475Z,1.60
2018-02-07T05:26:29.918Z,1.70
2018-02-07T05:28:57.384Z,1.70
2018-02-07T05:31:24.842Z,1.90
2018-02-07T05:33:52.299Z,1.90
2018-02-07T05:36:19.763Z,1.80
2018-02-07T05:38:47.215Z,1.70
2018-02-07T05:41:14.661Z,1.60
2018-02-07T05:43:42.112Z,1.60
2018-02-07T05:46:09.575Z,1.10
2018-02-07T05:48:37.027Z,1.50
2018-02-07T05:51:04.484Z,1.60
2018-02-07T05:53:31.907Z,1.80
2018-02-07T05:55:59.367Z,2.00
2018-02-07T05:58:26.799Z,2.10
2018-02-07T06:00:54.257Z,2.20
2018-02-07T06:03:21.758Z,2.20
2018-02-07T06:05:49.188Z,2.20
2018-02-07T06:08:16.639Z,2.10
2018-02-07T06:10:44.084Z,2.00
2018-02-07T06:13:11.533Z,2.00
2018-02-07T06:15:38.986Z,2.20
2018-02-07T06:18:06.437Z,2.20
2018-02-07T06:20:33.881Z,2.10
2018-02-07T06:23:01.644Z,2.10
2018-02-07T06:25:29.155Z,2.10
2018-02-07T06:27:56.613Z,2.00
2018-02-07T06:30:24.096Z,2.00
2018-02-07T06:32:51.519Z,1.90
2018-02-07T06:35:18.964Z,1.90
2018-02-07T06:37:46.411Z,2.00
2018-02-07T06:40:13.855Z,2.00
2018-02-07T06:42:41.324Z,2.10
2018-02-07T06:45:08.777Z,2.10
2018-02-07T06:47:36.300Z,1.90
2018-02-07T06:50:03.731Z,1.60
2018-02-07T06:52:31.274Z,1.40
2018-02-07T06:54:58.722Z,1.20
2018-02-07T06:57:26.147Z,1.00
2018-02-07T06:59:53.810Z,1.20
2018-02-07T07:02:21.570Z,1.20
2018-02-07T07:04:49.089Z,0.90
2018-02-07T07:07:16.587Z,0.90
2018-02-07T07:09:44.055Z,0.80
2018-02-07T07:12:11.515Z,0.90
2018-02-07T07:14:39.000Z,1.00
2018-02-07T07:17:06.435Z,1.20
2018-02-07T07:19:33.896Z,1.30
2018-02-07T07:22:01.363Z,1.40
2018-02-07T07:24:28.816Z,1.30
2018-02-07T07:26:56.263Z,1.40
2018-02-07T07:29:23.739Z,1.20
2018-02-07T07:31:51.197Z,1.00
2018-02-07T07:34:18.649Z,0.80
2018-02-07T07:36:46.087Z,0.50
2018-02-07T07:39:13.569Z,0.40
2018-02-07T07:41:41.017Z,0.50
2018-02-07T07:44:08.478Z,0.40
2018-02-07T07:46:35.914Z,0.50
2018-02-07T07:49:03.372Z,0.50
2018-02-07T07:51:30.836Z,0.50
2018-02-07T07:54:00.075Z,0.50
2018-02-07T07:56:27.544Z,0.40
2018-02-07T07:58:55.023Z,0.30
2018-02-07T08:01:22.464Z,0.10
2018-02-07T08:03:49.947Z,0.10
2018-02-07T08:06:17.400Z,0.30
2018-02-07T08:08:44.857Z,0.20
2018-02-07T08:11:12.309Z,0.30
2018-02-07T08:13:39.772Z,0.30
2018-02-07T08:16:07.229Z,0.10
2018-02-07T08:18:34.684Z,0.20
2018-02-07T08:21:02.168Z,0.10
2018-02-07T08:23:29.619Z,0.10
2018-02-07T08:25:57.083Z,0.00
2018-02-07T08:28:24.536Z,0.10
2018-02-07T08:30:52.001Z,0.00
2018-02-07T08:33:19.465Z,0.10
2018-02-07T08:35:46.951Z,0.30
2018-02-07T08:38:14.411Z,0.10
2018-02-07T08:40:41.902Z,0.30
2018-02-07T08:43:09.416Z,0.40
2018-02-07T08:45:36.876Z,0.50
2018-02-07T08:48:05.087Z,0.80
2018-02-07T08:50:32.531Z,0.70
2018-02-07T08:53:00.034Z,0.80
2018-02-07T08:55:27.550Z,0.90
2018-02-07T08:57:54.952Z,0.80
2018-02-07T09:00:22.418Z,0.70
2018-02-07T09:02:49.895Z,0.60
2018-02-07T09:05:17.351Z,0.50
2018-02-07T09:07:44.816Z,0.80
2018-02-07T09:10:12.308Z,0.70
2018-02-07T09:12:39.786Z,0.70
2018-02-07T09:15:07.281Z,0.80
2018-02-07T09:17:35.504Z,0.90
2018-02-07T09:20:02.960Z,0.90
2018-02-07T09:22:30.443Z,1.30
2018-02-07T09:24:57.914Z,1.10
2018-02-07T09:27:25.357Z,1.10
2018-02-07T09:29:52.859Z,0.90
2018-02-07T09:32:20.315Z,0.90
2018-02-07T09:34:47.783Z,1.10
2018-02-07T09:37:15.261Z,1.40
2018-02-07T09:39:42.734Z,1.70
2018-02-07T09:42:10.196Z,1.70
2018-02-07T09:44:37.660Z,1.70
2018-02-07T09:47:05.136Z,1.70
2018-02-07T09:49:32.596Z,1.80
2018-02-07T09:52:00.042Z,2.00
2018-02-07T09:54:27.504Z,2.20
2018-02-07T09:56:54.984Z,2.10
2018-02-07T09:59:23.198Z,1.50
2018-02-07T10:01:50.649Z,1.40
2018-02-07T10:04:18.110Z,1.50
2018-02-07T10:06:45.560Z,1.80
2018-02-07T10:09:13.024Z,2.00
2018-02-07T10:11:40.493Z,2.00
2018-02-07T10:14:07.951Z,2.30
2018-02-07T10:16:35.404Z,2.40
2018-02-07T10:19:03.649Z,2.60
2018-02-07T10:21:31.871Z,2.40
2018-02-07T10:23:59.824Z,2.30
2018-02-07T10:26:27.356Z,2.50
2018-02-07T10:28:54.832Z,2.60
2018-02-07T10:31:22.301Z,2.60
2018-02-07T10:33:49.789Z,2.80
2018-02-07T10:36:17.257Z,2.90
2018-02-07T10:38:44.703Z,2.90
2018-02-07T10:41:12.322Z,3.00
2018-02-07T10:43:39.779Z,3.00
2018-02-07T10:46:07.236Z,3.10
2018-02-07T10:48:34.804Z,3.10
2018-02-07T10:51:02.259Z,3.20
2018-02-07T10:53:29.724Z,3.20
2018-02-07T10:55:57.183Z,3.10
2018-02-07T10:58:24.637Z,3.10
2018-02-07T11:00:52.114Z,3.20
2018-02-07T11:03:19.587Z,3.30
2018-02-07T11:05:47.044Z,3.40
2018-02-07T11:08:14.508Z,3.40
2018-02-07T11:10:41.957Z,3.40
2018-02-07T11:13:10.188Z,3.40
2018-02-07T11:15:37.647Z,3.40
2018-02-07T11:18:05.119Z,3.40
2018-02-07T11:20:32.577Z,3.40
2018-02-07T11:23:00.047Z,3.40
2018-02-07T11:25:27.503Z,3.40
2018-02-07T11:27:55.024Z,3.40
2018-02-07T11:30:22.444Z,3.40
2018-02-07T11:32:50.869Z,3.50
2018-02-07T11:35:18.344Z,3.40
2018-02-07T11:37:45.827Z,3.30
2018-02-07T11:40:13.291Z,3.20
2018-02-07T11:42:40.793Z,3.20
2018-02-07T11:45:08.261Z,3.20
2018-02-07T11:47:35.724Z,3.20
2018-02-07T11:50:03.207Z,3.20
2018-02-07T11:52:30.652Z,3.30
2018-02-07T11:54:58.287Z,3.40
2018-02-07T11:57:26.513Z,3.30
2018-02-07T11:59:53.951Z,3.30
2018-02-07T12:02:21.403Z,3.30
2018-02-07T12:04:48.859Z,3.20
2018-02-07T12:07:16.331Z,3.10
2018-02-07T12:09:43.799Z,3.00
2018-02-07T12:12:11.254Z,3.00
2018-02-07T12:14:39.504Z,2.90
2018-02-07T12:17:06.967Z,2.90
2018-02-07T12:19:34.456Z,3.00
2018-02-07T12:22:01.963Z,3.00
2018-02-07T12:24:29.419Z,2.90
2018-02-07T12:26:56.883Z,2.70
2018-02-07T12:29:24.341Z,2.50
2018-02-07T12:31:52.642Z,2.40
2018-02-07T12:34:20.093Z,2.60
2018-02-07T12:36:47.572Z,2.70
2018-02-07T12:39:15.847Z,2.80
2018-02-07T12:41:43.863Z,2.70
2018-02-07T12:44:11.315Z,2.80
2018-02-07T12:46:38.759Z,2.80
2018-02-07T12:49:06.261Z,2.90
2018-02-07T12:51:33.698Z,2.80
2018-02-07T12:54:01.143Z,2.80
2018-02-07T12:56:28.701Z,2.80
2018-02-07T12:58:56.164Z,2.80
2018-02-07T13:01:23.595Z,2.80
2018-02-07T13:03:51.054Z,2.80
2018-02-07T13:06:18.511Z,2.80
2018-02-07T13:08:45.951Z,2.80
2018-02-07T13:11:13.415Z,2.90
2018-02-07T13:13:40.875Z,2.70
2018-02-07T13:16:08.313Z,2.70
2018-02-07T13:18:35.772Z,2.60
2018-02-07T13:21:03.243Z,2.60
2018-02-07T13:23:30.699Z,2.60
2018-02-07T13:25:58.151Z,2.60
2018-02-07T13:28:25.615Z,2.60
2018-02-07T13:30:53.067Z,2.70
2018-02-07T13:33:20.542Z,2.70
2018-02-07T13:35:48.030Z,2.50
2018-02-07T13:38:15.488Z,2.60
2018-02-07T13:40:42.948Z,2.50
2018-02-07T13:43:10.388Z,2.60
2018-02-07T13:45:37.845Z,2.60
2018-02-07T13:48:05.287Z,2.60
2018-02-07T13:50:32.743Z,2.70
2018-02-07T13:53:00.192Z,2.80
2018-02-07T13:55:27.654Z,2.90
2018-02-07T13:57:55.091Z,2.80
2018-02-07T14:00:23.294Z,2.80
2018-02-07T14:02:50.744Z,2.70
2018-02-07T14:05:18.629Z,2.70
2018-02-07T14:07:46.085Z,2.70
2018-02-07T14:10:13.541Z,2.70
2018-02-07T14:12:41.003Z,2.60
2018-02-07T14:15:08.440Z,2.50
2018-02-07T14:17:35.884Z,2.50
2018-02-07T14:20:03.331Z,2.50
2018-02-07T14:22:31.554Z,2.40
2018-02-07T14:24:59.004Z,2.30
2018-02-07T14:27:26.440Z,2.40
2018-02-07T14:29:53.884Z,2.40
2018-02-07T14:32:21.324Z,2.40
2018-02-07T14:34:48.773Z,2.20
2018-02-07T14:37:16.226Z,2.10
2018-02-07T14:39:43.696Z,2.00
2018-02-07T14:42:11.912Z,2.10
2018-02-07T14:44:39.339Z,2.10
2018-02-07T14:47:06.780Z,2.10
2018-02-07T14:49:34.224Z,2.10
2018-02-07T14:52:01.672Z,2.10
2018-02-07T14:54:29.120Z,2.20
2018-02-07T14:56:56.591Z,2.30
2018-02-07T14:59:24.043Z,2.30
2018-02-07T15:01:51.494Z,2.20
2018-02-07T15:04:18.958Z,2.20
2018-02-07T15:06:46.415Z,2.20
2018-02-07T15:09:13.872Z,2.30
2018-02-07T15:11:41.312Z,2.40
2018-02-07T15:14:08.791Z,2.40
2018-02-07T15:16:36.241Z,2.50
2018-02-07T15:19:03.678Z,2.50
2018-02-07T15:21:31.168Z,2.60
2018-02-07T15:23:58.624Z,2.50
2018-02-07T15:26:26.082Z,2.50
2018-02-07T15:28:53.539Z,2.30
2018-02-07T15:31:20.983Z,2.20
2018-02-07T15:33:48.449Z,2.20
2018-02-07T15:36:15.922Z,2.20
2018-02-07T15:38:43.371Z,2.20
2018-02-07T15:41:10.815Z,2.30
2018-02-07T15:43:38.247Z,2.40
2018-02-07T15:46:05.702Z,2.40
2018-02-07T15:48:33.160Z,2.30
2018-02-07T15:51:01.383Z,2.30
2018-02-07T15:53:29.604Z,2.20
2018-02-07T15:55:57.043Z,2.10
2018-02-07T15:58:24.479Z,2.20
2018-02-07T16:00:51.940Z,2.20
2018-02-07T16:03:19.381Z,2.10
2018-02-07T16:05:46.826Z,2.20
2018-02-07T16:08:14.274Z,2.20
2018-02-07T16:10:41.711Z,2.10
2018-02-07T16:13:09.196Z,2.10
2018-02-07T16:15:36.860Z,2.20
2018-02-07T16:18:04.461Z,2.10
2018-02-07T16:20:31.907Z,2.10
2018-02-07T16:23:00.151Z,2.00
2018-02-07T16:25:27.582Z,2.00
2018-02-07T16:27:55.044Z,2.10
2018-02-07T16:30:22.588Z,2.00
2018-02-07T16:32:50.045Z,2.10
2018-02-07T16:35:17.505Z,2.20
2018-02-07T16:37:44.959Z,2.30
2018-02-07T16:40:12.518Z,2.30
2018-02-07T16:42:39.943Z,2.20
2018-02-07T16:45:07.397Z,2.20
2018-02-07T16:47:34.870Z,2.20
2018-02-07T16:50:02.321Z,2.20
2018-02-07T16:52:29.765Z,2.30
2018-02-07T16:54:57.203Z,2.20
2018-02-07T16:57:24.648Z,2.20
2018-02-07T16:59:52.120Z,2.20
2018-02-07T17:02:19.563Z,2.20
2018-02-07T17:04:47.007Z,2.20
2018-02-07T17:07:14.474Z,2.20
2018-02-07T17:09:41.932Z,2.10
2018-02-07T17:12:09.410Z,2.10
2018-02-07T17:14:36.847Z,2.20
2018-02-07T17:17:04.295Z,2.20
2018-02-07T17:19:31.743Z,2.20
2018-02-07T17:21:59.259Z,2.10
2018-02-07T17:24:26.704Z,2.10
2018-02-07T17:26:54.151Z,2.00
2018-02-07T17:29:21.596Z,2.00
2018-02-07T17:31:49.063Z,2.10
2018-02-07T17:34:16.524Z,2.10
2018-02-07T17:36:43.992Z,2.10
2018-02-07T17:39:11.423Z,2.00
2018-02-07T17:41:38.895Z,2.00
2018-02-07T17:44:07.284Z,2.10
2018-02-07T17:46:34.743Z,2.10
2018-02-07T17:49:02.967Z,2.20
2018-02-07T17:51:30.449Z,2.10
2018-02-07T17:53:57.888Z,2.20
2018-02-07T17:56:25.331Z,2.20
2018-02-07T17:58:52.769Z,2.10
2018-02-07T18:01:20.201Z,2.10
2018-02-07T18:03:47.664Z,2.00
2018-02-07T18:06:15.099Z,2.00
2018-02-07T18:08:42.552Z,2.00
2018-02-07T18:11:10.007Z,2.10
2018-02-07T18:13:37.458Z,2.10
2018-02-07T18:16:04.907Z,2.10
2018-02-07T18:18:32.390Z,2.10
2018-02-07T18:20:59.803Z,2.10
2018-02-07T18:23:27.261Z,2.20
2018-02-07T18:25:54.715Z,2.20
2018-02-07T18:28:22.147Z,2.10
2018-02-07T18:30:49.844Z,2.10
2018-02-07T18:33:17.271Z,2.10
2018-02-07T18:35:44.716Z,2.10
2018-02-07T18:38:12.161Z,2.10
2018-02-07T18:40:40.358Z,2.10
2018-02-07T18:43:07.800Z,2.00
2018-02-07T18:45:35.232Z,2.10
2018-02-07T18:48:02.672Z,2.00
2018-02-07T18:50:30.208Z,2.00
2018-02-07T18:52:57.675Z,1.90
2018-02-07T18:55:25.123Z,1.90
2018-02-07T18:57:52.575Z,2.00
2018-02-07T19:00:20.032Z,1.90
2018-02-07T19:02:48.000Z,1.90
2018-02-07T19:05:15.431Z,1.90
2018-02-07T19:07:42.920Z,1.90
2018-02-07T19:10:10.984Z,1.90
2018-02-07T19:12:38.546Z,1.90
2018-02-07T19:15:05.995Z,2.00
2018-02-07T19:17:33.466Z,1.90
2018-02-07T19:20:00.930Z,1.90
2018-02-07T19:22:28.392Z,1.90
2018-02-07T19:24:55.829Z,1.90
2018-02-07T19:27:23.292Z,1.90
2018-02-07T19:29:51.500Z,2.00
2018-02-07T19:32:18.957Z,2.00
2018-02-07T19:34:46.566Z,2.10
2018-02-07T19:37:14.038Z,2.10
2018-02-07T19:39:41.471Z,2.10
2018-02-07T19:42:08.916Z,1.90
2018-02-07T19:44:36.375Z,2.00
2018-02-07T19:47:03.819Z,2.10
2018-02-07T19:49:32.037Z,2.20
2018-02-07T19:51:59.476Z,2.20
2018-02-07T19:54:26.919Z,2.20
2018-02-07T19:56:54.376Z,2.20
2018-02-07T19:59:21.823Z,2.10
2018-02-07T20:01:49.267Z,2.20
2018-02-07T20:04:16.722Z,2.30
2018-02-07T20:06:44.175Z,2.20
2018-02-07T20:09:11.622Z,2.20
2018-02-07T20:11:39.059Z,2.20
2018-02-07T20:14:06.516Z,2.20
2018-02-07T20:16:33.973Z,2.20
2018-02-07T20:19:01.422Z,2.20
2018-02-07T20:21:29.083Z,2.20
2018-02-07T20:23:56.542Z,2.20
2018-02-07T20:26:23.997Z,2.10
2018-02-07T20:28:51.467Z,2.20
2018-02-07T20:31:18.891Z,2.20
2018-02-07T20:33:46.338Z,2.10
2018-02-07T20:36:13.788Z,2.10
2018-02-07T20:38:42.007Z,2.10
2018-02-07T20:41:09.454Z,2.10
2018-02-07T20:43:36.903Z,2.10
2018-02-07T20:46:04.369Z,2.10
2018-02-07T20:48:31.812Z,2.10
2018-02-07T20:50:59.236Z,2.20
2018-02-07T20:53:26.666Z,2.20
2018-02-07T20:55:54.111Z,2.20
2018-02-07T20:58:21.553Z,2.30
2018-02-07T21:00:49.012Z,2.30
2018-02-07T21:03:16.552Z,2.30
2018-02-07T21:05:44.009Z,2.20
2018-02-07T21:08:11.443Z,2.20
2018-02-07T21:10:38.874Z,2.10
2018-02-07T21:13:06.326Z,2.00
2018-02-07T21:15:33.779Z,2.00
2018-02-07T21:18:01.205Z,2.00
2018-02-07T21:20:28.634Z,2.00
2018-02-07T21:22:56.088Z,2.00
2018-02-07T21:25:24.305Z,1.80
2018-02-07T21:27:51.743Z,1.80
2018-02-07T21:30:19.220Z,1.80
2018-02-07T21:32:46.653Z,1.80
2018-02-07T21:35:14.091Z,1.80
2018-02-07T21:37:41.531Z,1.80
2018-02-07T21:40:08.967Z,1.80
2018-02-07T21:42:36.431Z,1.80
2018-02-07T21:45:03.863Z,1.80
2018-02-07T21:47:31.379Z,1.80
2018-02-07T21:49:58.834Z,1.70
2018-02-07T21:52:26.295Z,1.70
2018-02-07T21:54:53.765Z,1.70
2018-02-07T21:57:21.206Z,1.80
2018-02-07T21:59:48.688Z,1.70
2018-02-07T22:02:16.123Z,1.80
2018-02-07T22:04:43.574Z,1.90
2018-02-07T22:07:11.019Z,1.90
2018-02-07T22:09:38.492Z,2.00
2018-02-07T22:12:05.947Z,2.10
2018-02-07T22:14:33.403Z,2.00
2018-02-07T22:17:00.864Z,1.90
2018-02-07T22:19:28.304Z,2.00
2018-02-07T22:21:55.743Z,2.00
2018-02-07T22:24:23.187Z,2.10
2018-02-07T22:26:50.631Z,2.10
2018-02-07T22:29:18.087Z,2.10
2018-02-07T22:31:45.599Z,2.30
2018-02-07T22:34:13.051Z,2.30
2018-02-07T22:36:40.487Z,2.30
2018-02-07T22:39:07.948Z,2.30
2018-02-07T22:41:35.384Z,2.30
2018-02-07T22:44:02.831Z,2.30
2018-02-07T22:46:30.263Z,2.30
2018-02-07T22:48:57.719Z,2.30
2018-02-07T22:51:25.206Z,2.40
2018-02-07T22:53:52.713Z,2.40
2018-02-07T22:56:20.169Z,2.40
2018-02-07T22:58:47.624Z,2.20
2018-02-07T23:01:15.081Z,2.00
2018-02-07T23:03:42.543Z,2.00
2018-02-07T23:06:09.992Z,2.00
2018-02-07T23:08:37.427Z,2.10
2018-02-07T23:11:04.874Z,2.10
2018-02-07T23:13:32.324Z,2.00
2018-02-07T23:15:59.843Z,2.10
2018-02-07T23:18:27.279Z,1.60
2018-02-07T23:20:54.759Z,1.50
2018-02-07T23:23:22.195Z,1.70
2018-02-07T23:25:50.417Z,1.80
2018-02-07T23:28:17.872Z,1.80
2018-02-07T23:30:45.310Z,2.00
2018-02-07T23:33:12.767Z,2.10
2018-02-07T23:35:40.227Z,2.20
2018-02-07T23:38:07.880Z,1.90
2018-02-07T23:40:35.325Z,1.80
2018-02-07T23:43:02.775Z,1.80
2018-02-07T23:45:30.981Z,1.80
2018-02-07T23:47:58.437Z,1.80
2018-02-07T23:50:25.896Z,1.90
2018-02-07T23:52:53.343Z,2.10
2018-02-07T23:55:20.814Z,2.00
2018-02-07T23:57:48.239Z,2.00
